ilmateenistus.ee keskkonnaagentuur.ee
EETN Tallinn
FTEO31 EETN 221100
TAF EETN 221110Z 2212/2312 05005KT 9999 SCT015 BKN025 PROB40 TEMPO
    2221/2304 2000 BR BKN004 BECMG 2306/2308 15012KT=

METAR EETN 221420Z 06005KT 9999 OVC026 10/05 Q1020 NOSIG=
Tallinn
EEKA Kärdla
FCEO32 EETN 221200
TAF EEKA 221200Z 2213/2219 VRB02KT 9999 SCT020 PROB40 TEMPO 2217/2219
    2000 BR BKN004=

METAR EEKA 221420Z 36004KT CAVOK 09/05 Q1021=
Kärdla
EEKE Kuressaare
FCEO32 EETN 221400
TAF EEKE 221400Z 2215/2221 VRB02KT 9999 SCT025 PROB40 TEMPO 2217/2221
    2000 BR BKN004=

METAR EEKE 221420Z 19005KT 9999 SCT037 11/04 Q1021=
Kuressaare
EEPU Pärnu
METAR EEPU 221350Z NIL=
Pärnu
EETU Tartu
METAR EETU 221420Z 36007KT 340V040 9999 SCT035 12/04 Q1018=
Tartu
EEEI Ämari
METAR EEEI 221350Z 08005KT 9999 SCT030 11/05 Q1021 NOSIG=
Ämari